<?xml version="1.0" encoding="UTF-8" ?>
<gpx version="1.1" xmlns:xsi="http://www.w3.org/2001/XMLSchema-instance" 
    xmlns="http://www.topografix.com/GPX/1/1"
    xsi:schemaLocation="http://www.topografix.com/GPX/1/1 http://www.topografix.com/GPX/1/1/gpx.xsd" 
    creator="Openrunner - https://www.openrunner.com" >	<trk>
	                   <name>St Symphorien sur Coise - Bords de la Coise-21936073</name>
						<trkseg>
					<trkpt lat="45.632750" lon="4.455220">
						<ele>590</ele>
						<time>2025-07-25T13:46:09Z</time>
					</trkpt>
					<trkpt lat="45.632610" lon="4.455200">
						<ele>591</ele>
						<time>2025-07-25T13:46:28Z</time>
					</trkpt>
					<trkpt lat="45.632390" lon="4.455140">
						<ele>592</ele>
						<time>2025-07-25T13:46:58Z</time>
					</trkpt>
					<trkpt lat="45.632330" lon="4.455120">
						<ele>592</ele>
						<time>2025-07-25T13:47:06Z</time>
					</trkpt>
					<trkpt lat="45.632240" lon="4.455070">
						<ele>591</ele>
						<time>2025-07-25T13:47:19Z</time>
					</trkpt>
					<trkpt lat="45.632190" lon="4.455040">
						<ele>591</ele>
						<time>2025-07-25T13:47:26Z</time>
					</trkpt>
					<trkpt lat="45.632090" lon="4.454990">
						<ele>591</ele>
						<time>2025-07-25T13:47:40Z</time>
					</trkpt>
					<trkpt lat="45.631940" lon="4.454900">
						<ele>590</ele>
						<time>2025-07-25T13:48:02Z</time>
					</trkpt>
					<trkpt lat="45.631900" lon="4.454880">
						<ele>589</ele>
						<time>2025-07-25T13:48:08Z</time>
					</trkpt>
					<trkpt lat="45.631740" lon="4.454740">
						<ele>588</ele>
						<time>2025-07-25T13:48:33Z</time>
					</trkpt>
					<trkpt lat="45.631680" lon="4.454660">
						<ele>588</ele>
						<time>2025-07-25T13:48:43Z</time>
					</trkpt>
					<trkpt lat="45.631630" lon="4.454600">
						<ele>587</ele>
						<time>2025-07-25T13:48:52Z</time>
					</trkpt>
					<trkpt lat="45.631530" lon="4.454420">
						<ele>585</ele>
						<time>2025-07-25T13:49:14Z</time>
					</trkpt>
					<trkpt lat="45.631490" lon="4.454160">
						<ele>584</ele>
						<time>2025-07-25T13:49:38Z</time>
					</trkpt>
					<trkpt lat="45.631480" lon="4.453960">
						<ele>582</ele>
						<time>2025-07-25T13:49:57Z</time>
					</trkpt>
					<trkpt lat="45.631490" lon="4.453860">
						<ele>581</ele>
						<time>2025-07-25T13:50:07Z</time>
					</trkpt>
					<trkpt lat="45.631510" lon="4.453700">
						<ele>579</ele>
						<time>2025-07-25T13:50:22Z</time>
					</trkpt>
					<trkpt lat="45.631540" lon="4.453630">
						<ele>579</ele>
						<time>2025-07-25T13:50:29Z</time>
					</trkpt>
					<trkpt lat="45.631600" lon="4.453510">
						<ele>578</ele>
						<time>2025-07-25T13:50:43Z</time>
					</trkpt>
					<trkpt lat="45.631720" lon="4.453370">
						<ele>578</ele>
						<time>2025-07-25T13:51:04Z</time>
					</trkpt>
					<trkpt lat="45.631740" lon="4.453340">
						<ele>578</ele>
						<time>2025-07-25T13:51:08Z</time>
					</trkpt>
					<trkpt lat="45.631760" lon="4.453230">
						<ele>576</ele>
						<time>2025-07-25T13:51:18Z</time>
					</trkpt>
					<trkpt lat="45.631750" lon="4.453170">
						<ele>574</ele>
						<time>2025-07-25T13:51:24Z</time>
					</trkpt>
					<trkpt lat="45.631740" lon="4.453130">
						<ele>573</ele>
						<time>2025-07-25T13:51:28Z</time>
					</trkpt>
					<trkpt lat="45.631800" lon="4.453040">
						<ele>572</ele>
						<time>2025-07-25T13:51:40Z</time>
					</trkpt>
					<trkpt lat="45.631970" lon="4.452760">
						<ele>567</ele>
						<time>2025-07-25T13:52:14Z</time>
					</trkpt>
					<trkpt lat="45.631950" lon="4.452740">
						<ele>566</ele>
						<time>2025-07-25T13:52:18Z</time>
					</trkpt>
					<trkpt lat="45.631940" lon="4.452730">
						<ele>566</ele>
						<time>2025-07-25T13:52:19Z</time>
					</trkpt>
					<trkpt lat="45.631940" lon="4.452730">
						<ele>566</ele>
						<time>2025-07-25T13:52:19Z</time>
					</trkpt>
					<trkpt lat="45.631920" lon="4.452750">
						<ele>566</ele>
						<time>2025-07-25T13:52:22Z</time>
					</trkpt>
					<trkpt lat="45.631860" lon="4.452830">
						<ele>567</ele>
						<time>2025-07-25T13:52:33Z</time>
					</trkpt>
					<trkpt lat="45.631810" lon="4.452850">
						<ele>567</ele>
						<time>2025-07-25T13:52:40Z</time>
					</trkpt>
					<trkpt lat="45.631720" lon="4.452960">
						<ele>569</ele>
						<time>2025-07-25T13:52:56Z</time>
					</trkpt>
					<trkpt lat="45.631650" lon="4.453050">
						<ele>570</ele>
						<time>2025-07-25T13:53:09Z</time>
					</trkpt>
					<trkpt lat="45.631580" lon="4.453030">
						<ele>569</ele>
						<time>2025-07-25T13:53:18Z</time>
					</trkpt>
					<trkpt lat="45.631210" lon="4.452870">
						<ele>563</ele>
						<time>2025-07-25T13:54:10Z</time>
					</trkpt>
					<trkpt lat="45.631140" lon="4.452830">
						<ele>562</ele>
						<time>2025-07-25T13:54:20Z</time>
					</trkpt>
					<trkpt lat="45.631080" lon="4.452740">
						<ele>560</ele>
						<time>2025-07-25T13:54:31Z</time>
					</trkpt>
					<trkpt lat="45.630990" lon="4.452650">
						<ele>558</ele>
						<time>2025-07-25T13:54:46Z</time>
					</trkpt>
					<trkpt lat="45.630650" lon="4.452470">
						<ele>556</ele>
						<time>2025-07-25T13:55:34Z</time>
					</trkpt>
					<trkpt lat="45.630550" lon="4.452420">
						<ele>557</ele>
						<time>2025-07-25T13:55:49Z</time>
					</trkpt>
					<trkpt lat="45.630420" lon="4.452330">
						<ele>557</ele>
						<time>2025-07-25T13:56:08Z</time>
					</trkpt>
					<trkpt lat="45.630360" lon="4.452180">
						<ele>556</ele>
						<time>2025-07-25T13:56:24Z</time>
					</trkpt>
					<trkpt lat="45.629940" lon="4.451700">
						<ele>553</ele>
						<time>2025-07-25T13:57:36Z</time>
					</trkpt>
					<trkpt lat="45.629910" lon="4.451660">
						<ele>553</ele>
						<time>2025-07-25T13:57:41Z</time>
					</trkpt>
					<trkpt lat="45.629780" lon="4.451180">
						<ele>550</ele>
						<time>2025-07-25T13:58:29Z</time>
					</trkpt>
					<trkpt lat="45.629660" lon="4.450960">
						<ele>549</ele>
						<time>2025-07-25T13:58:55Z</time>
					</trkpt>
					<trkpt lat="45.629540" lon="4.450860">
						<ele>549</ele>
						<time>2025-07-25T13:59:14Z</time>
					</trkpt>
					<trkpt lat="45.629170" lon="4.450560">
						<ele>547</ele>
						<time>2025-07-25T14:00:11Z</time>
					</trkpt>
					<trkpt lat="45.628880" lon="4.450290">
						<ele>547</ele>
						<time>2025-07-25T14:00:57Z</time>
					</trkpt>
					<trkpt lat="45.628700" lon="4.449800">
						<ele>547</ele>
						<time>2025-07-25T14:01:48Z</time>
					</trkpt>
					<trkpt lat="45.628680" lon="4.449210">
						<ele>545</ele>
						<time>2025-07-25T14:02:44Z</time>
					</trkpt>
					<trkpt lat="45.628610" lon="4.448590">
						<ele>542</ele>
						<time>2025-07-25T14:03:42Z</time>
					</trkpt>
					<trkpt lat="45.628540" lon="4.448360">
						<ele>540</ele>
						<time>2025-07-25T14:04:06Z</time>
					</trkpt>
					<trkpt lat="45.628530" lon="4.448310">
						<ele>540</ele>
						<time>2025-07-25T14:04:10Z</time>
					</trkpt>
					<trkpt lat="45.628420" lon="4.448120">
						<ele>542</ele>
						<time>2025-07-25T14:04:33Z</time>
					</trkpt>
					<trkpt lat="45.628240" lon="4.447990">
						<ele>543</ele>
						<time>2025-07-25T14:05:00Z</time>
					</trkpt>
					<trkpt lat="45.627980" lon="4.448220">
						<ele>539</ele>
						<time>2025-07-25T14:05:41Z</time>
					</trkpt>
					<trkpt lat="45.627880" lon="4.448290">
						<ele>538</ele>
						<time>2025-07-25T14:05:56Z</time>
					</trkpt>
					<trkpt lat="45.627610" lon="4.448410">
						<ele>539</ele>
						<time>2025-07-25T14:06:34Z</time>
					</trkpt>
					<trkpt lat="45.627450" lon="4.448430">
						<ele>540</ele>
						<time>2025-07-25T14:06:55Z</time>
					</trkpt>
					<trkpt lat="45.627260" lon="4.448390">
						<ele>540</ele>
						<time>2025-07-25T14:07:21Z</time>
					</trkpt>
					<trkpt lat="45.627240" lon="4.448380">
						<ele>540</ele>
						<time>2025-07-25T14:07:24Z</time>
					</trkpt>
					<trkpt lat="45.626830" lon="4.448050">
						<ele>539</ele>
						<time>2025-07-25T14:08:26Z</time>
					</trkpt>
					<trkpt lat="45.626440" lon="4.447570">
						<ele>533</ele>
						<time>2025-07-25T14:09:35Z</time>
					</trkpt>
					<trkpt lat="45.626020" lon="4.446960">
						<ele>527</ele>
						<time>2025-07-25T14:10:55Z</time>
					</trkpt>
					<trkpt lat="45.625820" lon="4.446690">
						<ele>518</ele>
						<time>2025-07-25T14:11:32Z</time>
					</trkpt>
					<trkpt lat="45.625680" lon="4.446610">
						<ele>517</ele>
						<time>2025-07-25T14:11:52Z</time>
					</trkpt>
					<trkpt lat="45.625410" lon="4.446410">
						<ele>515</ele>
						<time>2025-07-25T14:12:32Z</time>
					</trkpt>
					<trkpt lat="45.625220" lon="4.446420">
						<ele>513</ele>
						<time>2025-07-25T14:12:58Z</time>
					</trkpt>
					<trkpt lat="45.624880" lon="4.446520">
						<ele>512</ele>
						<time>2025-07-25T14:13:44Z</time>
					</trkpt>
					<trkpt lat="45.624700" lon="4.446530">
						<ele>511</ele>
						<time>2025-07-25T14:14:08Z</time>
					</trkpt>
					<trkpt lat="45.624530" lon="4.446480">
						<ele>510</ele>
						<time>2025-07-25T14:14:31Z</time>
					</trkpt>
					<trkpt lat="45.624040" lon="4.446460">
						<ele>507</ele>
						<time>2025-07-25T14:15:37Z</time>
					</trkpt>
					<trkpt lat="45.623980" lon="4.446460">
						<ele>507</ele>
						<time>2025-07-25T14:15:45Z</time>
					</trkpt>
					<trkpt lat="45.623930" lon="4.446600">
						<ele>508</ele>
						<time>2025-07-25T14:15:59Z</time>
					</trkpt>
					<trkpt lat="45.623630" lon="4.447630">
						<ele>513</ele>
						<time>2025-07-25T14:17:43Z</time>
					</trkpt>
					<trkpt lat="45.623580" lon="4.447830">
						<ele>512</ele>
						<time>2025-07-25T14:18:03Z</time>
					</trkpt>
					<trkpt lat="45.623570" lon="4.448040">
						<ele>512</ele>
						<time>2025-07-25T14:18:23Z</time>
					</trkpt>
					<trkpt lat="45.623590" lon="4.448180">
						<ele>512</ele>
						<time>2025-07-25T14:18:36Z</time>
					</trkpt>
					<trkpt lat="45.623630" lon="4.448320">
						<ele>513</ele>
						<time>2025-07-25T14:18:50Z</time>
					</trkpt>
					<trkpt lat="45.623620" lon="4.448340">
						<ele>512</ele>
						<time>2025-07-25T14:18:53Z</time>
					</trkpt>
					<trkpt lat="45.623550" lon="4.448520">
						<ele>510</ele>
						<time>2025-07-25T14:19:12Z</time>
					</trkpt>
					<trkpt lat="45.623600" lon="4.448640">
						<ele>510</ele>
						<time>2025-07-25T14:19:25Z</time>
					</trkpt>
					<trkpt lat="45.624020" lon="4.449030">
						<ele>512</ele>
						<time>2025-07-25T14:20:32Z</time>
					</trkpt>
					<trkpt lat="45.624640" lon="4.449520">
						<ele>520</ele>
						<time>2025-07-25T14:22:06Z</time>
					</trkpt>
					<trkpt lat="45.624830" lon="4.449710">
						<ele>520</ele>
						<time>2025-07-25T14:22:37Z</time>
					</trkpt>
					<trkpt lat="45.624930" lon="4.449820">
						<ele>519</ele>
						<time>2025-07-25T14:22:54Z</time>
					</trkpt>
					<trkpt lat="45.625020" lon="4.450030">
						<ele>517</ele>
						<time>2025-07-25T14:23:17Z</time>
					</trkpt>
					<trkpt lat="45.625070" lon="4.450330">
						<ele>516</ele>
						<time>2025-07-25T14:23:46Z</time>
					</trkpt>
					<trkpt lat="45.625430" lon="4.451180">
						<ele>521</ele>
						<time>2025-07-25T14:25:19Z</time>
					</trkpt>
					<trkpt lat="45.625540" lon="4.451910">
						<ele>518</ele>
						<time>2025-07-25T14:26:28Z</time>
					</trkpt>
					<trkpt lat="45.625460" lon="4.452030">
						<ele>518</ele>
						<time>2025-07-25T14:26:44Z</time>
					</trkpt>
					<trkpt lat="45.625460" lon="4.452030">
						<ele>518</ele>
						<time>2025-07-25T14:26:44Z</time>
					</trkpt>
					<trkpt lat="45.625300" lon="4.452320">
						<ele>517</ele>
						<time>2025-07-25T14:27:18Z</time>
					</trkpt>
					<trkpt lat="45.625270" lon="4.452460">
						<ele>516</ele>
						<time>2025-07-25T14:27:32Z</time>
					</trkpt>
					<trkpt lat="45.625250" lon="4.452540">
						<ele>516</ele>
						<time>2025-07-25T14:27:40Z</time>
					</trkpt>
					<trkpt lat="45.625260" lon="4.452820">
						<ele>515</ele>
						<time>2025-07-25T14:28:06Z</time>
					</trkpt>
					<trkpt lat="45.625360" lon="4.453060">
						<ele>512</ele>
						<time>2025-07-25T14:28:32Z</time>
					</trkpt>
					<trkpt lat="45.625460" lon="4.453280">
						<ele>509</ele>
						<time>2025-07-25T14:28:57Z</time>
					</trkpt>
					<trkpt lat="45.625720" lon="4.453860">
						<ele>507</ele>
						<time>2025-07-25T14:30:01Z</time>
					</trkpt>
					<trkpt lat="45.625810" lon="4.454140">
						<ele>506</ele>
						<time>2025-07-25T14:30:30Z</time>
					</trkpt>
					<trkpt lat="45.625830" lon="4.454200">
						<ele>505</ele>
						<time>2025-07-25T14:30:36Z</time>
					</trkpt>
					<trkpt lat="45.626020" lon="4.454440">
						<ele>509</ele>
						<time>2025-07-25T14:31:10Z</time>
					</trkpt>
					<trkpt lat="45.626150" lon="4.454630">
						<ele>511</ele>
						<time>2025-07-25T14:31:34Z</time>
					</trkpt>
					<trkpt lat="45.626250" lon="4.454830">
						<ele>512</ele>
						<time>2025-07-25T14:31:57Z</time>
					</trkpt>
					<trkpt lat="45.626380" lon="4.454970">
						<ele>512</ele>
						<time>2025-07-25T14:32:19Z</time>
					</trkpt>
					<trkpt lat="45.626400" lon="4.454990">
						<ele>512</ele>
						<time>2025-07-25T14:32:22Z</time>
					</trkpt>
					<trkpt lat="45.626420" lon="4.455040">
						<ele>512</ele>
						<time>2025-07-25T14:32:28Z</time>
					</trkpt>
					<trkpt lat="45.626460" lon="4.455430">
						<ele>510</ele>
						<time>2025-07-25T14:33:05Z</time>
					</trkpt>
					<trkpt lat="45.626430" lon="4.455780">
						<ele>509</ele>
						<time>2025-07-25T14:33:37Z</time>
					</trkpt>
					<trkpt lat="45.626370" lon="4.456030">
						<ele>509</ele>
						<time>2025-07-25T14:34:02Z</time>
					</trkpt>
					<trkpt lat="45.626140" lon="4.456780">
						<ele>508</ele>
						<time>2025-07-25T14:35:19Z</time>
					</trkpt>
					<trkpt lat="45.626030" lon="4.457060">
						<ele>508</ele>
						<time>2025-07-25T14:35:48Z</time>
					</trkpt>
					<trkpt lat="45.625900" lon="4.457250">
						<ele>508</ele>
						<time>2025-07-25T14:36:13Z</time>
					</trkpt>
					<trkpt lat="45.625810" lon="4.457410">
						<ele>508</ele>
						<time>2025-07-25T14:36:32Z</time>
					</trkpt>
					<trkpt lat="45.625740" lon="4.457590">
						<ele>509</ele>
						<time>2025-07-25T14:36:52Z</time>
					</trkpt>
					<trkpt lat="45.625690" lon="4.457800">
						<ele>509</ele>
						<time>2025-07-25T14:37:12Z</time>
					</trkpt>
					<trkpt lat="45.625660" lon="4.458090">
						<ele>508</ele>
						<time>2025-07-25T14:37:40Z</time>
					</trkpt>
					<trkpt lat="45.625690" lon="4.458230">
						<ele>507</ele>
						<time>2025-07-25T14:37:53Z</time>
					</trkpt>
					<trkpt lat="45.625690" lon="4.458230">
						<ele>507</ele>
						<time>2025-07-25T14:37:53Z</time>
					</trkpt>
					<trkpt lat="45.625690" lon="4.458250">
						<ele>507</ele>
						<time>2025-07-25T14:37:55Z</time>
					</trkpt>
					<trkpt lat="45.625700" lon="4.458300">
						<ele>507</ele>
						<time>2025-07-25T14:38:00Z</time>
					</trkpt>
					<trkpt lat="45.625790" lon="4.458290">
						<ele>506</ele>
						<time>2025-07-25T14:38:12Z</time>
					</trkpt>
					<trkpt lat="45.625780" lon="4.458640">
						<ele>506</ele>
						<time>2025-07-25T14:38:45Z</time>
					</trkpt>
					<trkpt lat="45.625810" lon="4.459000">
						<ele>505</ele>
						<time>2025-07-25T14:39:19Z</time>
					</trkpt>
					<trkpt lat="45.626000" lon="4.459670">
						<ele>506</ele>
						<time>2025-07-25T14:40:26Z</time>
					</trkpt>
					<trkpt lat="45.626210" lon="4.460130">
						<ele>507</ele>
						<time>2025-07-25T14:41:17Z</time>
					</trkpt>
					<trkpt lat="45.626330" lon="4.460730">
						<ele>509</ele>
						<time>2025-07-25T14:42:16Z</time>
					</trkpt>
					<trkpt lat="45.626410" lon="4.461010">
						<ele>509</ele>
						<time>2025-07-25T14:42:44Z</time>
					</trkpt>
					<trkpt lat="45.626600" lon="4.461400">
						<ele>509</ele>
						<time>2025-07-25T14:43:28Z</time>
					</trkpt>
					<trkpt lat="45.627310" lon="4.462510">
						<ele>520</ele>
						<time>2025-07-25T14:45:49Z</time>
					</trkpt>
					<trkpt lat="45.627360" lon="4.462590">
						<ele>521</ele>
						<time>2025-07-25T14:45:59Z</time>
					</trkpt>
					<trkpt lat="45.627390" lon="4.462820">
						<ele>521</ele>
						<time>2025-07-25T14:46:20Z</time>
					</trkpt>
					<trkpt lat="45.627380" lon="4.463060">
						<ele>522</ele>
						<time>2025-07-25T14:46:43Z</time>
					</trkpt>
					<trkpt lat="45.627210" lon="4.463500">
						<ele>519</ele>
						<time>2025-07-25T14:47:30Z</time>
					</trkpt>
					<trkpt lat="45.627230" lon="4.463650">
						<ele>520</ele>
						<time>2025-07-25T14:47:44Z</time>
					</trkpt>
					<trkpt lat="45.627250" lon="4.463610">
						<ele>521</ele>
						<time>2025-07-25T14:47:49Z</time>
					</trkpt>
					<trkpt lat="45.627230" lon="4.463650">
						<ele>520</ele>
						<time>2025-07-25T14:47:53Z</time>
					</trkpt>
					<trkpt lat="45.627050" lon="4.463960">
						<ele>519</ele>
						<time>2025-07-25T14:48:31Z</time>
					</trkpt>
					<trkpt lat="45.627060" lon="4.464240">
						<ele>519</ele>
						<time>2025-07-25T14:48:57Z</time>
					</trkpt>
					<trkpt lat="45.627070" lon="4.464280">
						<ele>519</ele>
						<time>2025-07-25T14:49:01Z</time>
					</trkpt>
					<trkpt lat="45.627110" lon="4.464350">
						<ele>520</ele>
						<time>2025-07-25T14:49:09Z</time>
					</trkpt>
					<trkpt lat="45.627160" lon="4.464390">
						<ele>520</ele>
						<time>2025-07-25T14:49:17Z</time>
					</trkpt>
					<trkpt lat="45.627780" lon="4.464310">
						<ele>531</ele>
						<time>2025-07-25T14:50:40Z</time>
					</trkpt>
					<trkpt lat="45.627860" lon="4.464260">
						<ele>533</ele>
						<time>2025-07-25T14:50:52Z</time>
					</trkpt>
					<trkpt lat="45.628110" lon="4.464140">
						<ele>538</ele>
						<time>2025-07-25T14:51:27Z</time>
					</trkpt>
					<trkpt lat="45.628370" lon="4.464130">
						<ele>543</ele>
						<time>2025-07-25T14:52:02Z</time>
					</trkpt>
					<trkpt lat="45.628390" lon="4.464130">
						<ele>543</ele>
						<time>2025-07-25T14:52:04Z</time>
					</trkpt>
					<trkpt lat="45.628530" lon="4.464100">
						<ele>546</ele>
						<time>2025-07-25T14:52:23Z</time>
					</trkpt>
					<trkpt lat="45.628720" lon="4.464050">
						<ele>549</ele>
						<time>2025-07-25T14:52:49Z</time>
					</trkpt>
					<trkpt lat="45.628900" lon="4.463960">
						<ele>552</ele>
						<time>2025-07-25T14:53:14Z</time>
					</trkpt>
					<trkpt lat="45.628940" lon="4.463940">
						<ele>553</ele>
						<time>2025-07-25T14:53:20Z</time>
					</trkpt>
					<trkpt lat="45.629150" lon="4.463900">
						<ele>556</ele>
						<time>2025-07-25T14:53:48Z</time>
					</trkpt>
					<trkpt lat="45.629300" lon="4.463870">
						<ele>558</ele>
						<time>2025-07-25T14:54:09Z</time>
					</trkpt>
					<trkpt lat="45.629440" lon="4.463710">
						<ele>560</ele>
						<time>2025-07-25T14:54:33Z</time>
					</trkpt>
					<trkpt lat="45.629520" lon="4.463590">
						<ele>560</ele>
						<time>2025-07-25T14:54:48Z</time>
					</trkpt>
					<trkpt lat="45.629580" lon="4.463540">
						<ele>561</ele>
						<time>2025-07-25T14:54:57Z</time>
					</trkpt>
					<trkpt lat="45.629650" lon="4.463510">
						<ele>562</ele>
						<time>2025-07-25T14:55:07Z</time>
					</trkpt>
					<trkpt lat="45.629820" lon="4.463470">
						<ele>563</ele>
						<time>2025-07-25T14:55:30Z</time>
					</trkpt>
					<trkpt lat="45.630080" lon="4.463410">
						<ele>567</ele>
						<time>2025-07-25T14:56:05Z</time>
					</trkpt>
					<trkpt lat="45.630090" lon="4.463370">
						<ele>567</ele>
						<time>2025-07-25T14:56:09Z</time>
					</trkpt>
					<trkpt lat="45.630090" lon="4.463370">
						<ele>567</ele>
						<time>2025-07-25T14:56:09Z</time>
					</trkpt>
					<trkpt lat="45.630140" lon="4.463160">
						<ele>568</ele>
						<time>2025-07-25T14:56:30Z</time>
					</trkpt>
					<trkpt lat="45.630170" lon="4.462940">
						<ele>569</ele>
						<time>2025-07-25T14:56:51Z</time>
					</trkpt>
					<trkpt lat="45.630190" lon="4.462290">
						<ele>571</ele>
						<time>2025-07-25T14:57:51Z</time>
					</trkpt>
					<trkpt lat="45.630200" lon="4.461780">
						<ele>575</ele>
						<time>2025-07-25T14:58:39Z</time>
					</trkpt>
					<trkpt lat="45.630260" lon="4.461580">
						<ele>576</ele>
						<time>2025-07-25T14:58:59Z</time>
					</trkpt>
					<trkpt lat="45.630360" lon="4.461150">
						<ele>579</ele>
						<time>2025-07-25T14:59:42Z</time>
					</trkpt>
					<trkpt lat="45.630550" lon="4.460570">
						<ele>581</ele>
						<time>2025-07-25T15:00:41Z</time>
					</trkpt>
					<trkpt lat="45.630960" lon="4.459560">
						<ele>582</ele>
						<time>2025-07-25T15:02:30Z</time>
					</trkpt>
					<trkpt lat="45.630990" lon="4.459590">
						<ele>582</ele>
						<time>2025-07-25T15:02:35Z</time>
					</trkpt>
					<trkpt lat="45.631040" lon="4.459470">
						<ele>582</ele>
						<time>2025-07-25T15:02:48Z</time>
					</trkpt>
					<trkpt lat="45.631080" lon="4.459470">
						<ele>583</ele>
						<time>2025-07-25T15:02:54Z</time>
					</trkpt>
					<trkpt lat="45.631080" lon="4.459470">
						<ele>583</ele>
						<time>2025-07-25T15:02:54Z</time>
					</trkpt>
					<trkpt lat="45.631290" lon="4.459260">
						<ele>584</ele>
						<time>2025-07-25T15:03:28Z</time>
					</trkpt>
					<trkpt lat="45.631360" lon="4.459250">
						<ele>585</ele>
						<time>2025-07-25T15:03:37Z</time>
					</trkpt>
					<trkpt lat="45.631450" lon="4.459300">
						<ele>586</ele>
						<time>2025-07-25T15:03:50Z</time>
					</trkpt>
					<trkpt lat="45.631540" lon="4.459270">
						<ele>587</ele>
						<time>2025-07-25T15:04:02Z</time>
					</trkpt>
					<trkpt lat="45.632000" lon="4.459140">
						<ele>590</ele>
						<time>2025-07-25T15:05:05Z</time>
					</trkpt>
					<trkpt lat="45.632380" lon="4.459260">
						<ele>592</ele>
						<time>2025-07-25T15:05:57Z</time>
					</trkpt>
					<trkpt lat="45.632440" lon="4.459320">
						<ele>592</ele>
						<time>2025-07-25T15:06:07Z</time>
					</trkpt>
					<trkpt lat="45.632590" lon="4.459450">
						<ele>594</ele>
						<time>2025-07-25T15:06:30Z</time>
					</trkpt>
					<trkpt lat="45.632700" lon="4.459550">
						<ele>595</ele>
						<time>2025-07-25T15:06:48Z</time>
					</trkpt>
					<trkpt lat="45.632690" lon="4.459600">
						<ele>595</ele>
						<time>2025-07-25T15:06:52Z</time>
					</trkpt>
					<trkpt lat="45.632780" lon="4.459650">
						<ele>595</ele>
						<time>2025-07-25T15:07:05Z</time>
					</trkpt>
					<trkpt lat="45.632780" lon="4.459640">
						<ele>595</ele>
						<time>2025-07-25T15:07:06Z</time>
					</trkpt>
					<trkpt lat="45.632870" lon="4.459290">
						<ele>595</ele>
						<time>2025-07-25T15:07:41Z</time>
					</trkpt>
					<trkpt lat="45.632900" lon="4.459130">
						<ele>594</ele>
						<time>2025-07-25T15:07:56Z</time>
					</trkpt>
					<trkpt lat="45.632940" lon="4.458940">
						<ele>594</ele>
						<time>2025-07-25T15:08:15Z</time>
					</trkpt>
					<trkpt lat="45.633110" lon="4.458180">
						<ele>594</ele>
						<time>2025-07-25T15:09:29Z</time>
					</trkpt>
					<trkpt lat="45.633220" lon="4.458250">
						<ele>595</ele>
						<time>2025-07-25T15:09:46Z</time>
					</trkpt>
					<trkpt lat="45.633260" lon="4.458120">
						<ele>595</ele>
						<time>2025-07-25T15:09:59Z</time>
					</trkpt>
					<trkpt lat="45.633270" lon="4.458110">
						<ele>595</ele>
						<time>2025-07-25T15:10:00Z</time>
					</trkpt>
					<trkpt lat="45.633260" lon="4.458050">
						<ele>594</ele>
						<time>2025-07-25T15:10:06Z</time>
					</trkpt>
					<trkpt lat="45.633240" lon="4.457990">
						<ele>594</ele>
						<time>2025-07-25T15:10:12Z</time>
					</trkpt>
					<trkpt lat="45.633300" lon="4.457690">
						<ele>593</ele>
						<time>2025-07-25T15:10:41Z</time>
					</trkpt>
					<trkpt lat="45.633300" lon="4.457690">
						<ele>593</ele>
						<time>2025-07-25T15:10:41Z</time>
					</trkpt>
					<trkpt lat="45.633300" lon="4.457680">
						<ele>593</ele>
						<time>2025-07-25T15:10:42Z</time>
					</trkpt>
					<trkpt lat="45.633280" lon="4.457580">
						<ele>592</ele>
						<time>2025-07-25T15:10:52Z</time>
					</trkpt>
					<trkpt lat="45.633170" lon="4.457610">
						<ele>592</ele>
						<time>2025-07-25T15:11:07Z</time>
					</trkpt>
					<trkpt lat="45.633050" lon="4.457550">
						<ele>592</ele>
						<time>2025-07-25T15:11:24Z</time>
					</trkpt>
					<trkpt lat="45.633120" lon="4.457350">
						<ele>591</ele>
						<time>2025-07-25T15:11:45Z</time>
					</trkpt>
					<trkpt lat="45.633130" lon="4.457320">
						<ele>591</ele>
						<time>2025-07-25T15:11:48Z</time>
					</trkpt>
					<trkpt lat="45.633170" lon="4.457200">
						<ele>590</ele>
						<time>2025-07-25T15:12:00Z</time>
					</trkpt>
					<trkpt lat="45.633180" lon="4.457190">
						<ele>590</ele>
						<time>2025-07-25T15:12:02Z</time>
					</trkpt>
					<trkpt lat="45.633160" lon="4.457050">
						<ele>590</ele>
						<time>2025-07-25T15:12:15Z</time>
					</trkpt>
					<trkpt lat="45.633070" lon="4.456860">
						<ele>589</ele>
						<time>2025-07-25T15:12:37Z</time>
					</trkpt>
					<trkpt lat="45.633060" lon="4.456690">
						<ele>588</ele>
						<time>2025-07-25T15:12:53Z</time>
					</trkpt>
					<trkpt lat="45.633060" lon="4.456670">
						<ele>588</ele>
						<time>2025-07-25T15:12:55Z</time>
					</trkpt>
					<trkpt lat="45.633050" lon="4.456620">
						<ele>588</ele>
						<time>2025-07-25T15:12:59Z</time>
					</trkpt>
					<trkpt lat="45.633050" lon="4.456600">
						<ele>588</ele>
						<time>2025-07-25T15:13:01Z</time>
					</trkpt>
					<trkpt lat="45.632960" lon="4.456620">
						<ele>588</ele>
						<time>2025-07-25T15:13:13Z</time>
					</trkpt>
					<trkpt lat="45.632890" lon="4.456130">
						<ele>588</ele>
						<time>2025-07-25T15:14:00Z</time>
					</trkpt>
					<trkpt lat="45.632890" lon="4.456120">
						<ele>588</ele>
						<time>2025-07-25T15:14:01Z</time>
					</trkpt>
					<trkpt lat="45.632950" lon="4.456020">
						<ele>587</ele>
						<time>2025-07-25T15:14:13Z</time>
					</trkpt>
					<trkpt lat="45.632720" lon="4.455800">
						<ele>589</ele>
						<time>2025-07-25T15:14:50Z</time>
					</trkpt>
					<trkpt lat="45.632720" lon="4.455730">
						<ele>589</ele>
						<time>2025-07-25T15:14:57Z</time>
					</trkpt>
					<trkpt lat="45.632610" lon="4.455630">
						<ele>590</ele>
						<time>2025-07-25T15:15:14Z</time>
					</trkpt>
					<trkpt lat="45.632660" lon="4.455530">
						<ele>590</ele>
						<time>2025-07-25T15:15:26Z</time>
					</trkpt>
					<trkpt lat="45.632850" lon="4.455240">
						<ele>589</ele>
						<time>2025-07-25T15:16:03Z</time>
					</trkpt>
					<trkpt lat="45.632750" lon="4.455220">
						<ele>590</ele>
						<time>2025-07-25T15:16:16Z</time>
					</trkpt>
					</trkseg>
				</trk>
			</gpx>